sensor_id;sensor_type;location;lat;lon;timestamp;P1;durP1;ratioP1;P2;durP2;ratioP2
22111;SDS011;11222;50.872;4.312;2022-11-14T00:00:28;38.63;;;28.27;;
22111;SDS011;11222;50.872;4.312;2022-11-14T00:02:58;42.10;;;26.90;;
22111;SDS011;11222;50.872;4.312;2022-11-14T00:05:24;38.88;;;29.20;;
22111;SDS011;11222;50.872;4.312;2022-11-14T00:07:50;38.35;;;28.08;;
22111;SDS011;11222;50.872;4.312;2022-11-14T00:10:16;39.15;;;28.20;;
22111;SDS011;11222;50.872;4.312;2022-11-14T00:12:42;40.80;;;29.92;;
22111;SDS011;11222;50.872;4.312;2022-11-14T00:15:08;42.45;;;29.08;;
22111;SDS011;11222;50.872;4.312;2022-11-14T00:17:34;42.22;;;28.85;;
22111;SDS011;11222;50.872;4.312;2022-11-14T00:20:00;39.58;;;28.75;;
22111;SDS011;11222;50.872;4.312;2022-11-14T00:22:26;40.08;;;28.85;;
22111;SDS011;11222;50.872;4.312;2022-11-14T00:24:51;39.05;;;28.63;;
22111;SDS011;11222;50.872;4.312;2022-11-14T00:27:17;39.80;;;28.83;;
22111;SDS011;11222;50.872;4.312;2022-11-14T00:29:43;42.55;;;28.33;;
22111;SDS011;11222;50.872;4.312;2022-11-14T00:32:08;39.30;;;28.48;;
22111;SDS011;11222;50.872;4.312;2022-11-14T00:34:34;40.03;;;28.77;;
22111;SDS011;11222;50.872;4.312;2022-11-14T00:37:00;40.50;;;27.95;;
22111;SDS011;11222;50.872;4.312;2022-11-14T00:39:26;40.08;;;28.98;;
22111;SDS011;11222;50.872;4.312;2022-11-14T00:41:52;45.65;;;30.20;;
22111;SDS011;11222;50.872;4.312;2022-11-14T00:44:17;43.83;;;28.90;;
22111;SDS011;11222;50.872;4.312;2022-11-14T00:46:43;41.15;;;28.48;;
22111;SDS011;11222;50.872;4.312;2022-11-14T00:49:09;43.28;;;29.48;;
22111;SDS011;11222;50.872;4.312;2022-11-14T00:51:35;41.28;;;29.30;;
22111;SDS011;11222;50.872;4.312;2022-11-14T00:54:00;41.30;;;27.88;;
22111;SDS011;11222;50.872;4.312;2022-11-14T00:56:27;40.95;;;28.27;;
22111;SDS011;11222;50.872;4.312;2022-11-14T00:58:52;39.28;;;27.13;;
22111;SDS011;11222;50.872;4.312;2022-11-14T01:01:18;40.05;;;26.80;;
22111;SDS011;11222;50.872;4.312;2022-11-14T01:03:50;36.65;;;26.92;;
22111;SDS011;11222;50.872;4.312;2022-11-14T01:06:16;38.92;;;26.95;;
22111;SDS011;11222;50.872;4.312;2022-11-14T01:08:43;39.20;;;26.45;;
22111;SDS011;11222;50.872;4.312;2022-11-14T01:11:12;36.75;;;26.35;;
22111;SDS011;11222;50.872;4.312;2022-11-14T01:13:40;37.63;;;25.92;;
22111;SDS011;11222;50.872;4.312;2022-11-14T01:16:07;37.20;;;25.63;;
22111;SDS011;11222;50.872;4.312;2022-11-14T01:18:34;37.90;;;26.02;;
22111;SDS011;11222;50.872;4.312;2022-11-14T01:21:03;36.13;;;26.88;;
22111;SDS011;11222;50.872;4.312;2022-11-14T01:23:30;39.33;;;27.70;;
22111;SDS011;11222;50.872;4.312;2022-11-14T01:26:00;40.38;;;27.63;;
22111;SDS011;11222;50.872;4.312;2022-11-14T01:28:30;38.15;;;26.45;;
22111;SDS011;11222;50.872;4.312;2022-11-14T01:30:56;37.97;;;25.80;;
22111;SDS011;11222;50.872;4.312;2022-11-14T01:33:31;37.30;;;26.45;;
22111;SDS011;11222;50.872;4.312;2022-11-14T01:35:58;36.58;;;25.60;;
22111;SDS011;11222;50.872;4.312;2022-11-14T01:38:24;36.17;;;26.30;;
22111;SDS011;11222;50.872;4.312;2022-11-14T01:40:50;34.33;;;24.83;;
22111;SDS011;11222;50.872;4.312;2022-11-14T01:54:06;33.97;;;24.75;;
22111;SDS011;11222;50.872;4.312;2022-11-14T01:56:36;34.92;;;25.65;;
22111;SDS011;11222;50.872;4.312;2022-11-14T01:59:09;36.88;;;24.88;;
22111;SDS011;11222;50.872;4.312;2022-11-14T02:01:43;34.80;;;25.17;;
22111;SDS011;11222;50.872;4.312;2022-11-14T02:04:11;36.20;;;24.80;;
22111;SDS011;11222;50.872;4.312;2022-11-14T02:06:45;37.08;;;24.80;;
22111;SDS011;11222;50.872;4.312;2022-11-14T02:09:12;32.97;;;24.08;;
22111;SDS011;11222;50.872;4.312;2022-11-14T02:11:39;34.17;;;24.95;;
22111;SDS011;11222;50.872;4.312;2022-11-14T02:14:07;33.03;;;24.13;;
22111;SDS011;11222;50.872;4.312;2022-11-14T02:16:33;33.67;;;24.52;;
22111;SDS011;11222;50.872;4.312;2022-11-14T02:18:59;32.67;;;24.55;;
22111;SDS011;11222;50.872;4.312;2022-11-14T02:21:25;34.15;;;24.83;;
22111;SDS011;11222;50.872;4.312;2022-11-14T02:23:50;33.20;;;24.33;;
22111;SDS011;11222;50.872;4.312;2022-11-14T02:26:17;34.80;;;24.25;;
22111;SDS011;11222;50.872;4.312;2022-11-14T02:28:45;29.25;;;22.65;;
22111;SDS011;11222;50.872;4.312;2022-11-14T02:31:11;33.03;;;23.90;;
22111;SDS011;11222;50.872;4.312;2022-11-14T02:33:37;33.28;;;24.60;;
22111;SDS011;11222;50.872;4.312;2022-11-14T02:36:03;33.72;;;24.42;;
22111;SDS011;11222;50.872;4.312;2022-11-14T02:38:28;29.02;;;22.75;;
22111;SDS011;11222;50.872;4.312;2022-11-14T02:40:54;35.10;;;24.73;;
22111;SDS011;11222;50.872;4.312;2022-11-14T02:43:20;34.28;;;23.35;;
22111;SDS011;11222;50.872;4.312;2022-11-14T02:45:45;31.50;;;22.73;;
22111;SDS011;11222;50.872;4.312;2022-11-14T02:48:11;30.33;;;23.02;;
22111;SDS011;11222;50.872;4.312;2022-11-14T02:50:37;32.70;;;23.33;;
22111;SDS011;11222;50.872;4.312;2022-11-14T02:53:02;30.88;;;22.40;;
22111;SDS011;11222;50.872;4.312;2022-11-14T02:55:28;31.70;;;22.13;;
22111;SDS011;11222;50.872;4.312;2022-11-14T02:57:54;33.85;;;22.83;;
22111;SDS011;11222;50.872;4.312;2022-11-14T03:00:19;28.98;;;22.45;;
22111;SDS011;11222;50.872;4.312;2022-11-14T03:02:45;32.03;;;23.55;;
22111;SDS011;11222;50.872;4.312;2022-11-14T03:05:11;30.85;;;23.35;;
22111;SDS011;11222;50.872;4.312;2022-11-14T03:07:36;34.22;;;23.58;;
22111;SDS011;11222;50.872;4.312;2022-11-14T03:10:02;31.27;;;23.52;;
22111;SDS011;11222;50.872;4.312;2022-11-14T03:12:28;32.72;;;23.42;;
22111;SDS011;11222;50.872;4.312;2022-11-14T03:14:54;33.42;;;23.70;;
22111;SDS011;11222;50.872;4.312;2022-11-14T03:17:20;31.58;;;22.67;;
22111;SDS011;11222;50.872;4.312;2022-11-14T03:19:48;30.15;;;22.27;;
22111;SDS011;11222;50.872;4.312;2022-11-14T03:22:14;34.08;;;22.73;;
22111;SDS011;11222;50.872;4.312;2022-11-14T03:24:40;31.90;;;22.52;;
22111;SDS011;11222;50.872;4.312;2022-11-14T03:27:05;32.22;;;22.90;;
22111;SDS011;11222;50.872;4.312;2022-11-14T03:29:31;32.92;;;22.92;;
22111;SDS011;11222;50.872;4.312;2022-11-14T03:31:57;29.00;;;22.48;;
22111;SDS011;11222;50.872;4.312;2022-11-14T03:34:22;32.22;;;22.40;;
22111;SDS011;11222;50.872;4.312;2022-11-14T03:36:48;33.55;;;22.75;;
22111;SDS011;11222;50.872;4.312;2022-11-14T03:39:14;35.38;;;23.02;;
22111;SDS011;11222;50.872;4.312;2022-11-14T03:41:39;31.88;;;22.52;;
22111;SDS011;11222;50.872;4.312;2022-11-14T03:44:05;33.90;;;21.60;;
22111;SDS011;11222;50.872;4.312;2022-11-14T03:46:30;27.60;;;20.95;;
22111;SDS011;11222;50.872;4.312;2022-11-14T03:48:56;28.52;;;20.52;;
22111;SDS011;11222;50.872;4.312;2022-11-14T03:51:22;29.65;;;21.90;;
22111;SDS011;11222;50.872;4.312;2022-11-14T03:53:47;30.13;;;21.27;;
22111;SDS011;11222;50.872;4.312;2022-11-14T03:56:13;28.77;;;21.08;;
22111;SDS011;11222;50.872;4.312;2022-11-14T03:58:38;33.25;;;22.02;;
22111;SDS011;11222;50.872;4.312;2022-11-14T04:01:04;30.17;;;21.77;;
22111;SDS011;11222;50.872;4.312;2022-11-14T04:03:30;30.50;;;21.98;;
22111;SDS011;11222;50.872;4.312;2022-11-14T04:05:55;31.02;;;22.33;;
22111;SDS011;11222;50.872;4.312;2022-11-14T04:08:21;29.45;;;22.27;;
22111;SDS011;11222;50.872;4.312;2022-11-14T04:10:47;32.90;;;22.63;;
22111;SDS011;11222;50.872;4.312;2022-11-14T04:13:12;28.70;;;21.85;;
22111;SDS011;11222;50.872;4.312;2022-11-14T04:15:39;31.67;;;22.25;;
22111;SDS011;11222;50.872;4.312;2022-11-14T04:18:05;31.77;;;22.13;;
22111;SDS011;11222;50.872;4.312;2022-11-14T04:20:30;30.92;;;22.13;;
22111;SDS011;11222;50.872;4.312;2022-11-14T04:22:56;33.30;;;22.95;;
22111;SDS011;11222;50.872;4.312;2022-11-14T04:25:22;31.27;;;22.27;;
22111;SDS011;11222;50.872;4.312;2022-11-14T04:27:47;28.75;;;20.95;;
22111;SDS011;11222;50.872;4.312;2022-11-14T04:30:13;36.30;;;23.08;;
22111;SDS011;11222;50.872;4.312;2022-11-14T04:32:39;27.50;;;20.67;;
22111;SDS011;11222;50.872;4.312;2022-11-14T04:35:05;28.63;;;21.55;;
22111;SDS011;11222;50.872;4.312;2022-11-14T04:37:30;30.63;;;21.73;;
22111;SDS011;11222;50.872;4.312;2022-11-14T04:39:56;29.05;;;21.35;;
22111;SDS011;11222;50.872;4.312;2022-11-14T04:42:24;29.90;;;20.83;;
22111;SDS011;11222;50.872;4.312;2022-11-14T04:44:50;28.30;;;20.00;;
22111;SDS011;11222;50.872;4.312;2022-11-14T04:47:16;28.35;;;21.02;;
22111;SDS011;11222;50.872;4.312;2022-11-14T04:49:42;28.08;;;21.00;;
22111;SDS011;11222;50.872;4.312;2022-11-14T04:52:08;28.77;;;20.35;;
22111;SDS011;11222;50.872;4.312;2022-11-14T04:54:33;29.25;;;21.20;;
22111;SDS011;11222;50.872;4.312;2022-11-14T04:56:59;32.40;;;23.08;;
22111;SDS011;11222;50.872;4.312;2022-11-14T04:59:24;31.58;;;21.75;;
22111;SDS011;11222;50.872;4.312;2022-11-14T05:01:50;28.20;;;19.60;;
22111;SDS011;11222;50.872;4.312;2022-11-14T05:04:16;30.63;;;21.67;;
22111;SDS011;11222;50.872;4.312;2022-11-14T05:06:41;27.63;;;20.17;;
22111;SDS011;11222;50.872;4.312;2022-11-14T05:09:07;29.48;;;20.67;;
22111;SDS011;11222;50.872;4.312;2022-11-14T05:11:33;28.38;;;20.42;;
22111;SDS011;11222;50.872;4.312;2022-11-14T05:13:58;29.00;;;20.40;;
22111;SDS011;11222;50.872;4.312;2022-11-14T05:16:24;26.63;;;19.30;;
22111;SDS011;11222;50.872;4.312;2022-11-14T05:18:51;27.02;;;19.73;;
22111;SDS011;11222;50.872;4.312;2022-11-14T05:21:17;27.63;;;19.40;;
22111;SDS011;11222;50.872;4.312;2022-11-14T05:23:43;28.25;;;19.40;;
22111;SDS011;11222;50.872;4.312;2022-11-14T05:26:10;27.10;;;18.75;;
22111;SDS011;11222;50.872;4.312;2022-11-14T05:28:37;27.58;;;18.65;;
22111;SDS011;11222;50.872;4.312;2022-11-14T05:31:03;25.02;;;17.35;;
22111;SDS011;11222;50.872;4.312;2022-11-14T05:33:30;24.67;;;17.42;;
22111;SDS011;11222;50.872;4.312;2022-11-14T05:36:00;24.60;;;17.15;;
22111;SDS011;11222;50.872;4.312;2022-11-14T05:38:33;24.05;;;16.23;;
22111;SDS011;11222;50.872;4.312;2022-11-14T05:41:00;28.45;;;19.73;;
22111;SDS011;11222;50.872;4.312;2022-11-14T05:43:29;21.27;;;15.35;;
22111;SDS011;11222;50.872;4.312;2022-11-14T05:45:59;33.70;;;21.30;;
22111;SDS011;11222;50.872;4.312;2022-11-14T05:48:25;31.08;;;20.77;;
22111;SDS011;11222;50.872;4.312;2022-11-14T05:50:57;29.35;;;19.05;;
22111;SDS011;11222;50.872;4.312;2022-11-14T05:53:24;58.83;;;30.42;;
22111;SDS011;11222;50.872;4.312;2022-11-14T05:55:50;26.98;;;19.10;;
22111;SDS011;11222;50.872;4.312;2022-11-14T05:58:15;49.45;;;28.73;;
22111;SDS011;11222;50.872;4.312;2022-11-14T06:00:41;22.15;;;16.25;;
22111;SDS011;11222;50.872;4.312;2022-11-14T06:03:07;22.95;;;16.63;;
22111;SDS011;11222;50.872;4.312;2022-11-14T06:05:33;21.73;;;16.02;;
22111;SDS011;11222;50.872;4.312;2022-11-14T06:08:00;20.48;;;15.18;;
22111;SDS011;11222;50.872;4.312;2022-11-14T06:10:26;19.38;;;14.10;;
22111;SDS011;11222;50.872;4.312;2022-11-14T06:12:52;18.77;;;14.43;;
22111;SDS011;11222;50.872;4.312;2022-11-14T06:15:18;20.52;;;14.70;;
22111;SDS011;11222;50.872;4.312;2022-11-14T06:17:44;21.38;;;15.02;;
22111;SDS011;11222;50.872;4.312;2022-11-14T06:20:10;21.83;;;14.90;;
22111;SDS011;11222;50.872;4.312;2022-11-14T06:22:37;21.67;;;14.90;;
22111;SDS011;11222;50.872;4.312;2022-11-14T06:25:04;18.92;;;14.18;;
22111;SDS011;11222;50.872;4.312;2022-11-14T06:27:30;20.63;;;15.07;;
22111;SDS011;11222;50.872;4.312;2022-11-14T06:29:56;20.38;;;14.57;;
22111;SDS011;11222;50.872;4.312;2022-11-14T06:32:22;21.25;;;13.77;;
22111;SDS011;11222;50.872;4.312;2022-11-14T06:34:48;20.45;;;14.25;;
22111;SDS011;11222;50.872;4.312;2022-11-14T06:37:13;24.50;;;15.40;;
22111;SDS011;11222;50.872;4.312;2022-11-14T06:39:39;22.10;;;15.13;;
22111;SDS011;11222;50.872;4.312;2022-11-14T06:42:05;26.08;;;15.50;;
22111;SDS011;11222;50.872;4.312;2022-11-14T06:44:30;18.70;;;14.55;;
22111;SDS011;11222;50.872;4.312;2022-11-14T06:46:56;20.25;;;14.43;;
22111;SDS011;11222;50.872;4.312;2022-11-14T06:49:22;25.48;;;15.05;;
22111;SDS011;11222;50.872;4.312;2022-11-14T06:51:51;22.13;;;15.57;;
22111;SDS011;11222;50.872;4.312;2022-11-14T06:54:17;21.45;;;14.55;;
22111;SDS011;11222;50.872;4.312;2022-11-14T06:56:43;20.80;;;14.40;;
22111;SDS011;11222;50.872;4.312;2022-11-14T06:59:09;20.05;;;13.70;;
22111;SDS011;11222;50.872;4.312;2022-11-14T07:01:35;19.77;;;13.20;;
22111;SDS011;11222;50.872;4.312;2022-11-14T07:04:00;16.67;;;13.50;;
22111;SDS011;11222;50.872;4.312;2022-11-14T07:06:27;20.10;;;14.07;;
22111;SDS011;11222;50.872;4.312;2022-11-14T07:08:54;19.80;;;14.25;;
22111;SDS011;11222;50.872;4.312;2022-11-14T07:11:22;19.10;;;13.20;;
22111;SDS011;11222;50.872;4.312;2022-11-14T07:13:52;22.30;;;14.05;;
22111;SDS011;11222;50.872;4.312;2022-11-14T07:16:19;24.50;;;14.20;;
22111;SDS011;11222;50.872;4.312;2022-11-14T07:18:48;19.67;;;14.02;;
22111;SDS011;11222;50.872;4.312;2022-11-14T07:21:13;21.33;;;14.07;;
22111;SDS011;11222;50.872;4.312;2022-11-14T07:23:39;25.25;;;16.63;;
22111;SDS011;11222;50.872;4.312;2022-11-14T07:26:06;24.35;;;16.15;;
22111;SDS011;11222;50.872;4.312;2022-11-14T07:28:34;25.10;;;15.73;;
22111;SDS011;11222;50.872;4.312;2022-11-14T07:31:04;21.60;;;14.85;;
22111;SDS011;11222;50.872;4.312;2022-11-14T07:33:30;21.30;;;14.70;;
22111;SDS011;11222;50.872;4.312;2022-11-14T07:35:57;20.65;;;14.25;;
22111;SDS011;11222;50.872;4.312;2022-11-14T07:38:22;23.23;;;15.82;;
22111;SDS011;11222;50.872;4.312;2022-11-14T07:40:58;24.88;;;14.32;;
22111;SDS011;11222;50.872;4.312;2022-11-14T07:43:25;20.23;;;13.88;;
22111;SDS011;11222;50.872;4.312;2022-11-14T07:45:51;22.20;;;14.25;;
22111;SDS011;11222;50.872;4.312;2022-11-14T07:48:17;23.80;;;14.27;;
22111;SDS011;11222;50.872;4.312;2022-11-14T07:50:45;38.83;;;16.00;;
22111;SDS011;11222;50.872;4.312;2022-11-14T07:53:11;21.25;;;15.07;;
22111;SDS011;11222;50.872;4.312;2022-11-14T07:55:37;26.40;;;14.20;;
22111;SDS011;11222;50.872;4.312;2022-11-14T07:58:03;22.15;;;13.77;;
22111;SDS011;11222;50.872;4.312;2022-11-14T08:00:29;25.33;;;14.60;;
22111;SDS011;11222;50.872;4.312;2022-11-14T08:02:55;211.05;;;37.22;;
22111;SDS011;11222;50.872;4.312;2022-11-14T08:05:21;25.73;;;14.85;;
22111;SDS011;11222;50.872;4.312;2022-11-14T08:07:49;22.33;;;14.07;;
22111;SDS011;11222;50.872;4.312;2022-11-14T08:10:15;23.25;;;14.23;;
22111;SDS011;11222;50.872;4.312;2022-11-14T08:12:42;23.48;;;13.77;;
22111;SDS011;11222;50.872;4.312;2022-11-14T08:15:09;26.23;;;13.68;;
22111;SDS011;11222;50.872;4.312;2022-11-14T08:17:36;35.40;;;19.08;;
22111;SDS011;11222;50.872;4.312;2022-11-14T08:20:02;27.83;;;14.35;;
22111;SDS011;11222;50.872;4.312;2022-11-14T08:22:29;29.52;;;13.73;;
22111;SDS011;11222;50.872;4.312;2022-11-14T08:24:55;28.63;;;14.70;;
22111;SDS011;11222;50.872;4.312;2022-11-14T08:27:21;22.92;;;13.98;;
22111;SDS011;11222;50.872;4.312;2022-11-14T08:29:47;26.27;;;14.07;;
22111;SDS011;11222;50.872;4.312;2022-11-14T08:32:15;24.10;;;13.70;;
22111;SDS011;11222;50.872;4.312;2022-11-14T08:34:41;28.45;;;14.90;;
22111;SDS011;11222;50.872;4.312;2022-11-14T08:37:06;24.92;;;13.90;;
22111;SDS011;11222;50.872;4.312;2022-11-14T08:39:32;23.65;;;13.75;;
22111;SDS011;11222;50.872;4.312;2022-11-14T08:41:58;20.70;;;13.63;;
22111;SDS011;11222;50.872;4.312;2022-11-14T08:44:24;24.95;;;13.88;;
22111;SDS011;11222;50.872;4.312;2022-11-14T08:46:49;20.38;;;13.18;;
22111;SDS011;11222;50.872;4.312;2022-11-14T08:49:15;20.88;;;13.23;;
22111;SDS011;11222;50.872;4.312;2022-11-14T08:51:41;22.80;;;12.85;;
22111;SDS011;11222;50.872;4.312;2022-11-14T08:54:06;19.45;;;12.82;;
22111;SDS011;11222;50.872;4.312;2022-11-14T08:56:32;22.50;;;13.52;;
22111;SDS011;11222;50.872;4.312;2022-11-14T08:58:58;27.60;;;13.57;;
22111;SDS011;11222;50.872;4.312;2022-11-14T09:01:26;21.65;;;13.50;;
22111;SDS011;11222;50.872;4.312;2022-11-14T09:03:53;20.55;;;12.98;;
22111;SDS011;11222;50.872;4.312;2022-11-14T09:06:19;20.15;;;12.80;;
22111;SDS011;11222;50.872;4.312;2022-11-14T09:08:45;23.08;;;13.85;;
22111;SDS011;11222;50.872;4.312;2022-11-14T09:11:12;25.65;;;13.95;;
22111;SDS011;11222;50.872;4.312;2022-11-14T09:13:38;25.23;;;14.25;;
22111;SDS011;11222;50.872;4.312;2022-11-14T09:16:03;21.30;;;13.45;;
22111;SDS011;11222;50.872;4.312;2022-11-14T09:18:29;25.50;;;13.05;;
22111;SDS011;11222;50.872;4.312;2022-11-14T09:21:03;24.30;;;13.60;;
22111;SDS011;11222;50.872;4.312;2022-11-14T09:23:31;26.17;;;15.25;;
22111;SDS011;11222;50.872;4.312;2022-11-14T09:26:02;24.23;;;14.52;;
22111;SDS011;11222;50.872;4.312;2022-11-14T09:28:32;20.60;;;13.40;;
22111;SDS011;11222;50.872;4.312;2022-11-14T09:31:02;25.15;;;14.80;;
22111;SDS011;11222;50.872;4.312;2022-11-14T09:33:29;20.42;;;14.15;;
22111;SDS011;11222;50.872;4.312;2022-11-14T09:35:58;23.20;;;14.85;;
22111;SDS011;11222;50.872;4.312;2022-11-14T09:38:25;26.77;;;15.13;;
22111;SDS011;11222;50.872;4.312;2022-11-14T09:41:04;23.92;;;14.05;;
22111;SDS011;11222;50.872;4.312;2022-11-14T09:46:10;24.52;;;14.55;;
22111;SDS011;11222;50.872;4.312;2022-11-14T09:48:47;27.27;;;15.30;;
22111;SDS011;11222;50.872;4.312;2022-11-14T09:51:21;24.50;;;14.55;;
22111;SDS011;11222;50.872;4.312;2022-11-14T09:54:17;44.97;;;16.00;;
22111;SDS011;11222;50.872;4.312;2022-11-14T09:56:45;26.45;;;15.70;;
22111;SDS011;11222;50.872;4.312;2022-11-14T09:59:11;25.17;;;15.05;;
22111;SDS011;11222;50.872;4.312;2022-11-14T10:12:26;23.25;;;15.02;;
22111;SDS011;11222;50.872;4.312;2022-11-14T10:15:17;37.63;;;16.73;;
22111;SDS011;11222;50.872;4.312;2022-11-14T10:18:20;23.50;;;15.45;;
22111;SDS011;11222;50.872;4.312;2022-11-14T10:24:09;31.92;;;16.38;;
22111;SDS011;11222;50.872;4.312;2022-11-14T10:27:10;43.97;;;17.05;;
22111;SDS011;11222;50.872;4.312;2022-11-14T10:37:53;28.58;;;15.40;;
22111;SDS011;11222;50.872;4.312;2022-11-14T10:40:42;29.33;;;16.25;;
22111;SDS011;11222;50.872;4.312;2022-11-14T10:43:17;28.80;;;16.23;;
22111;SDS011;11222;50.872;4.312;2022-11-14T10:45:49;25.48;;;15.75;;
22111;SDS011;11222;50.872;4.312;2022-11-14T10:48:53;22.00;;;14.77;;
22111;SDS011;11222;50.872;4.312;2022-11-14T10:51:21;25.92;;;15.25;;
22111;SDS011;11222;50.872;4.312;2022-11-14T10:53:49;28.35;;;16.92;;
22111;SDS011;11222;50.872;4.312;2022-11-14T10:56:16;23.17;;;14.73;;
22111;SDS011;11222;50.872;4.312;2022-11-14T10:58:42;25.33;;;14.32;;
22111;SDS011;11222;50.872;4.312;2022-11-14T11:04:10;56.58;;;17.13;;
22111;SDS011;11222;50.872;4.312;2022-11-14T11:06:45;29.88;;;16.15;;
22111;SDS011;11222;50.872;4.312;2022-11-14T11:09:22;28.70;;;18.65;;
22111;SDS011;11222;50.872;4.312;2022-11-14T11:12:08;28.73;;;17.55;;
22111;SDS011;11222;50.872;4.312;2022-11-14T11:14:43;26.98;;;17.77;;
22111;SDS011;11222;50.872;4.312;2022-11-14T11:19:35;28.90;;;18.48;;
22111;SDS011;11222;50.872;4.312;2022-11-14T11:22:02;29.83;;;18.90;;
22111;SDS011;11222;50.872;4.312;2022-11-14T11:24:32;31.17;;;18.63;;
22111;SDS011;11222;50.872;4.312;2022-11-14T11:27:13;29.65;;;19.42;;
22111;SDS011;11222;50.872;4.312;2022-11-14T11:30:00;28.13;;;18.98;;
22111;SDS011;11222;50.872;4.312;2022-11-14T11:32:31;32.05;;;20.35;;
22111;SDS011;11222;50.872;4.312;2022-11-14T11:34:57;28.63;;;18.27;;
22111;SDS011;11222;50.872;4.312;2022-11-14T11:37:30;26.70;;;18.02;;
22111;SDS011;11222;50.872;4.312;2022-11-14T11:40:01;25.90;;;17.42;;
22111;SDS011;11222;50.872;4.312;2022-11-14T11:42:37;26.10;;;17.70;;
22111;SDS011;11222;50.872;4.312;2022-11-14T11:45:11;25.88;;;17.40;;
22111;SDS011;11222;50.872;4.312;2022-11-14T11:47:41;25.27;;;17.10;;
22111;SDS011;11222;50.872;4.312;2022-11-14T11:50:29;27.15;;;17.77;;
22111;SDS011;11222;50.872;4.312;2022-11-14T11:52:58;25.70;;;17.50;;
22111;SDS011;11222;50.872;4.312;2022-11-14T11:55:58;25.00;;;16.42;;
22111;SDS011;11222;50.872;4.312;2022-11-14T11:58:30;30.48;;;17.48;;
22111;SDS011;11222;50.872;4.312;2022-11-14T12:01:01;25.80;;;17.65;;
22111;SDS011;11222;50.872;4.312;2022-11-14T12:03:27;38.35;;;19.98;;
22111;SDS011;11222;50.872;4.312;2022-11-14T12:06:13;32.35;;;18.45;;
22111;SDS011;11222;50.872;4.312;2022-11-14T12:08:44;29.10;;;18.45;;
22111;SDS011;11222;50.872;4.312;2022-11-14T12:11:19;27.75;;;19.30;;
22111;SDS011;11222;50.872;4.312;2022-11-14T12:14:00;29.83;;;17.75;;
22111;SDS011;11222;50.872;4.312;2022-11-14T12:28:59;32.58;;;19.25;;
22111;SDS011;11222;50.872;4.312;2022-11-14T12:31:49;32.58;;;21.05;;
22111;SDS011;11222;50.872;4.312;2022-11-14T12:34:41;47.42;;;21.00;;
22111;SDS011;11222;50.872;4.312;2022-11-14T12:37:12;39.88;;;21.38;;
22111;SDS011;11222;50.872;4.312;2022-11-14T12:39:42;32.60;;;21.65;;
22111;SDS011;11222;50.872;4.312;2022-11-14T12:42:22;36.10;;;22.40;;
22111;SDS011;11222;50.872;4.312;2022-11-14T12:44:49;46.42;;;22.98;;
22111;SDS011;11222;50.872;4.312;2022-11-14T12:47:20;37.15;;;22.23;;
22111;SDS011;11222;50.872;4.312;2022-11-14T12:57:48;35.45;;;21.85;;
22111;SDS011;11222;50.872;4.312;2022-11-14T13:00:18;38.35;;;22.05;;
22111;SDS011;11222;50.872;4.312;2022-11-14T13:08:26;80.13;;;28.08;;
22111;SDS011;11222;50.872;4.312;2022-11-14T13:10:59;50.43;;;23.83;;
22111;SDS011;11222;50.872;4.312;2022-11-14T13:13:49;84.28;;;27.58;;
22111;SDS011;11222;50.872;4.312;2022-11-14T13:16:46;45.00;;;25.23;;
22111;SDS011;11222;50.872;4.312;2022-11-14T13:19:31;50.80;;;26.80;;
22111;SDS011;11222;50.872;4.312;2022-11-14T13:22:18;39.70;;;24.07;;
22111;SDS011;11222;50.872;4.312;2022-11-14T13:27:26;41.65;;;24.67;;
22111;SDS011;11222;50.872;4.312;2022-11-14T13:29:56;41.92;;;25.30;;
22111;SDS011;11222;50.872;4.312;2022-11-14T13:35:10;41.78;;;24.00;;
22111;SDS011;11222;50.872;4.312;2022-11-14T13:51:38;43.60;;;27.52;;
22111;SDS011;11222;50.872;4.312;2022-11-14T13:54:11;46.05;;;28.77;;
22111;SDS011;11222;50.872;4.312;2022-11-14T14:19:36;38.00;;;23.05;;
22111;SDS011;11222;50.872;4.312;2022-11-14T14:30:10;35.05;;;22.25;;
22111;SDS011;11222;50.872;4.312;2022-11-14T14:32:40;37.63;;;22.73;;
22111;SDS011;11222;50.872;4.312;2022-11-14T14:35:26;41.45;;;24.15;;
22111;SDS011;11222;50.872;4.312;2022-11-14T14:37:54;41.88;;;21.92;;
22111;SDS011;11222;50.872;4.312;2022-11-14T14:40:22;32.28;;;20.50;;
22111;SDS011;11222;50.872;4.312;2022-11-14T14:42:50;34.60;;;21.60;;
22111;SDS011;11222;50.872;4.312;2022-11-14T14:45:20;28.77;;;19.50;;
22111;SDS011;11222;50.872;4.312;2022-11-14T14:47:48;32.42;;;19.92;;
22111;SDS011;11222;50.872;4.312;2022-11-14T14:53:03;30.52;;;18.17;;
22111;SDS011;11222;50.872;4.312;2022-11-14T14:55:33;25.00;;;17.42;;
22111;SDS011;11222;50.872;4.312;2022-11-14T15:00:50;30.58;;;19.38;;
22111;SDS011;11222;50.872;4.312;2022-11-14T15:03:17;29.92;;;18.25;;
22111;SDS011;11222;50.872;4.312;2022-11-14T15:05:43;26.73;;;17.10;;
22111;SDS011;11222;50.872;4.312;2022-11-14T15:08:10;24.48;;;16.67;;
22111;SDS011;11222;50.872;4.312;2022-11-14T15:10:38;26.40;;;17.92;;
22111;SDS011;11222;50.872;4.312;2022-11-14T15:13:05;27.50;;;18.65;;
22111;SDS011;11222;50.872;4.312;2022-11-14T15:15:32;27.45;;;18.25;;
22111;SDS011;11222;50.872;4.312;2022-11-14T15:17:58;24.80;;;17.83;;
22111;SDS011;11222;50.872;4.312;2022-11-14T15:20:29;25.67;;;18.10;;
22111;SDS011;11222;50.872;4.312;2022-11-14T15:23:02;26.15;;;18.73;;
22111;SDS011;11222;50.872;4.312;2022-11-14T15:25:29;29.05;;;18.75;;
22111;SDS011;11222;50.872;4.312;2022-11-14T15:27:55;32.33;;;18.75;;
22111;SDS011;11222;50.872;4.312;2022-11-14T15:30:28;30.95;;;19.05;;
22111;SDS011;11222;50.872;4.312;2022-11-14T15:33:02;31.88;;;18.90;;
22111;SDS011;11222;50.872;4.312;2022-11-14T15:35:39;27.88;;;19.10;;
22111;SDS011;11222;50.872;4.312;2022-11-14T15:40:38;30.40;;;18.00;;
22111;SDS011;11222;50.872;4.312;2022-11-14T15:48:55;25.70;;;17.85;;
22111;SDS011;11222;50.872;4.312;2022-11-14T15:51:37;26.60;;;16.52;;
22111;SDS011;11222;50.872;4.312;2022-11-14T15:54:44;21.38;;;13.50;;
22111;SDS011;11222;50.872;4.312;2022-11-14T15:57:08;27.35;;;15.35;;
22111;SDS011;11222;50.872;4.312;2022-11-14T15:59:37;23.10;;;16.40;;
22111;SDS011;11222;50.872;4.312;2022-11-14T16:02:03;25.10;;;15.00;;
22111;SDS011;11222;50.872;4.312;2022-11-14T16:04:43;25.55;;;15.95;;
22111;SDS011;11222;50.872;4.312;2022-11-14T16:07:10;26.45;;;16.40;;
22111;SDS011;11222;50.872;4.312;2022-11-14T16:09:37;22.42;;;15.85;;
22111;SDS011;11222;50.872;4.312;2022-11-14T16:12:03;20.95;;;14.20;;
22111;SDS011;11222;50.872;4.312;2022-11-14T16:14:28;24.02;;;15.52;;
22111;SDS011;11222;50.872;4.312;2022-11-14T16:16:54;20.52;;;14.68;;
22111;SDS011;11222;50.872;4.312;2022-11-14T16:19:20;23.75;;;14.73;;
22111;SDS011;11222;50.872;4.312;2022-11-14T16:21:46;21.58;;;14.50;;
22111;SDS011;11222;50.872;4.312;2022-11-14T16:24:16;22.92;;;14.85;;
22111;SDS011;11222;50.872;4.312;2022-11-14T16:26:43;36.58;;;21.30;;
22111;SDS011;11222;50.872;4.312;2022-11-14T16:29:09;20.42;;;14.15;;
22111;SDS011;11222;50.872;4.312;2022-11-14T16:31:35;19.58;;;13.88;;
22111;SDS011;11222;50.872;4.312;2022-11-14T16:34:00;18.05;;;12.73;;
22111;SDS011;11222;50.872;4.312;2022-11-14T16:36:26;18.55;;;12.93;;
22111;SDS011;11222;50.872;4.312;2022-11-14T16:38:55;18.65;;;12.55;;
22111;SDS011;11222;50.872;4.312;2022-11-14T16:41:24;18.75;;;13.35;;